Terminal Aerodrome Forecast
Issued by NWS

Home | Current Version | Previous Version | Text Only | Print | Product List | Glossary On
Versions: 1 2 3 4 5 6 7 8 9 10 11 12 13 14 15 16 17 18 19 20 21 22 23
096
FTUS41 KPBZ 122100 AAB
TAFLBE
TAF AMD
KLBE 122100Z 1221/1318 25012KT 3SM -SN OVC025
      TEMPO 1221/1223 1SM -SHSN
     FM130200 28015G28KT 4SM -SHSN OVC015
      TEMPO 1302/1306 1SM -SHSN OVC007
     FM130700 30012G25KT P6SM -SHSN OVC025=

USA.gov is the U.S. government's official web portal to all federal, state and local government web resources and services.